SGAS/ASU METAR and TAF weather

Enter ICAO airport designator
Station Type Date Time Source
SGAS METAR 2021/04/13 22:00 UTC NOAA

SGAS 132200Z 21005KT CAVOK 24/19 Q1017


Station Type Date Time Source
SGAS Decoded METAR 2021/04/13 22:00 UTC NOAA

Asuncion / Aeropuerto, Paraguay (SGAS) 25-16S 057-38W 101M
Apr 13, 2021 - 06:00 PM EDT / 2021.04.13 2200 UTC
Wind: from the SSW (210 degrees) at 6 MPH (5 KT):0
Visibility: greater than 7 mile(s):0
Temperature: 75 F (24 C)
Dew Point: 66 F (19 C)
Relative Humidity: 73%
Pressure (altimeter): 30.03 in. Hg (1017 hPa)
ob: SGAS 132200Z 21005KT CAVOK 24/19 Q1017
cycle: 22

Station Type Date Time Source
SGAS TAF 2021/04/13 18:23 UTC NOAA

TAF SGAS 131620Z 1318/1418 22006KT 9999 SCT033 TX29/1318Z TN16/1410Z
BECMG 1322/1401 CAVOK

Example: see airport list